sensor_id;sensor_type;location;lat;lon;timestamp;P1;durP1;ratioP1;P2;durP2;ratioP2
61471;SDS011;47337;54.068;12.114;2022-08-01T00:00:28;23.75;;;16.73;;
61471;SDS011;47337;54.068;12.114;2022-08-01T00:02:54;17.35;;;14.68;;
61471;SDS011;47337;54.068;12.114;2022-08-01T00:05:19;17.13;;;15.00;;
61471;SDS011;47337;54.068;12.114;2022-08-01T00:07:45;22.48;;;17.65;;
61471;SDS011;47337;54.068;12.114;2022-08-01T00:10:13;20.85;;;16.67;;
61471;SDS011;47337;54.068;12.114;2022-08-01T00:12:40;19.65;;;16.33;;
61471;SDS011;47337;54.068;12.114;2022-08-01T00:15:07;25.17;;;16.70;;
61471;SDS011;47337;54.068;12.114;2022-08-01T00:17:34;24.88;;;18.67;;
61471;SDS011;47337;54.068;12.114;2022-08-01T00:19:59;23.05;;;18.42;;
61471;SDS011;47337;54.068;12.114;2022-08-01T00:22:25;24.13;;;18.45;;
61471;SDS011;47337;54.068;12.114;2022-08-01T00:24:50;26.65;;;18.95;;
61471;SDS011;47337;54.068;12.114;2022-08-01T00:27:16;22.83;;;17.88;;
61471;SDS011;47337;54.068;12.114;2022-08-01T00:29:41;26.17;;;19.13;;
61471;SDS011;47337;54.068;12.114;2022-08-01T00:32:06;26.27;;;18.75;;
61471;SDS011;47337;54.068;12.114;2022-08-01T00:34:32;22.55;;;17.20;;
61471;SDS011;47337;54.068;12.114;2022-08-01T00:36:58;23.45;;;16.63;;
61471;SDS011;47337;54.068;12.114;2022-08-01T00:39:23;18.58;;;15.95;;
61471;SDS011;47337;54.068;12.114;2022-08-01T00:41:49;21.42;;;16.50;;
61471;SDS011;47337;54.068;12.114;2022-08-01T00:44:14;20.35;;;15.27;;
61471;SDS011;47337;54.068;12.114;2022-08-01T00:46:42;19.52;;;15.35;;
61471;SDS011;47337;54.068;12.114;2022-08-01T00:49:07;18.10;;;14.90;;
61471;SDS011;47337;54.068;12.114;2022-08-01T00:51:33;15.93;;;13.73;;
61471;SDS011;47337;54.068;12.114;2022-08-01T00:53:59;15.32;;;13.43;;
61471;SDS011;47337;54.068;12.114;2022-08-01T00:56:25;18.00;;;13.23;;
61471;SDS011;47337;54.068;12.114;2022-08-01T00:58:52;15.90;;;13.07;;
61471;SDS011;47337;54.068;12.114;2022-08-01T01:01:18;20.25;;;14.07;;
61471;SDS011;47337;54.068;12.114;2022-08-01T01:03:45;18.15;;;12.68;;
61471;SDS011;47337;54.068;12.114;2022-08-01T01:08:43;15.55;;;11.45;;
61471;SDS011;47337;54.068;12.114;2022-08-01T01:11:28;13.57;;;11.10;;
61471;SDS011;47337;54.068;12.114;2022-08-01T01:14:08;17.48;;;12.07;;
61471;SDS011;47337;54.068;12.114;2022-08-01T01:16:41;13.82;;;11.20;;
61471;SDS011;47337;54.068;12.114;2022-08-01T01:19:10;16.63;;;12.40;;
61471;SDS011;47337;54.068;12.114;2022-08-01T01:21:53;19.23;;;11.38;;
61471;SDS011;47337;54.068;12.114;2022-08-01T01:24:22;15.18;;;11.63;;
61471;SDS011;47337;54.068;12.114;2022-08-01T01:27:02;14.38;;;11.65;;
61471;SDS011;47337;54.068;12.114;2022-08-01T01:29:42;19.07;;;12.47;;
61471;SDS011;47337;54.068;12.114;2022-08-01T01:32:16;12.48;;;11.15;;
61471;SDS011;47337;54.068;12.114;2022-08-01T01:34:45;11.57;;;9.85;;
61471;SDS011;47337;54.068;12.114;2022-08-01T01:37:16;13.32;;;9.57;;
61471;SDS011;47337;54.068;12.114;2022-08-01T01:39:44;13.40;;;10.00;;
61471;SDS011;47337;54.068;12.114;2022-08-01T01:42:13;12.50;;;9.70;;
61471;SDS011;47337;54.068;12.114;2022-08-01T01:44:41;11.77;;;9.70;;
61471;SDS011;47337;54.068;12.114;2022-08-01T01:47:09;13.98;;;10.43;;
61471;SDS011;47337;54.068;12.114;2022-08-01T01:49:40;12.93;;;9.52;;
61471;SDS011;47337;54.068;12.114;2022-08-01T01:52:09;16.52;;;10.35;;
61471;SDS011;47337;54.068;12.114;2022-08-01T01:54:39;14.15;;;9.52;;
61471;SDS011;47337;54.068;12.114;2022-08-01T01:57:07;12.98;;;10.05;;
61471;SDS011;47337;54.068;12.114;2022-08-01T01:59:35;13.55;;;9.65;;
61471;SDS011;47337;54.068;12.114;2022-08-01T02:02:06;14.00;;;10.52;;
61471;SDS011;47337;54.068;12.114;2022-08-01T02:04:37;12.43;;;9.27;;
61471;SDS011;47337;54.068;12.114;2022-08-01T02:07:07;11.98;;;8.75;;
61471;SDS011;47337;54.068;12.114;2022-08-01T02:09:35;10.35;;;9.25;;
61471;SDS011;47337;54.068;12.114;2022-08-01T02:12:02;12.20;;;9.50;;
61471;SDS011;47337;54.068;12.114;2022-08-01T02:14:30;13.35;;;9.57;;
61471;SDS011;47337;54.068;12.114;2022-08-01T02:17:00;11.93;;;9.40;;
61471;SDS011;47337;54.068;12.114;2022-08-01T02:19:29;13.25;;;10.13;;
61471;SDS011;47337;54.068;12.114;2022-08-01T02:21:59;13.18;;;11.05;;
61471;SDS011;47337;54.068;12.114;2022-08-01T02:24:32;18.77;;;13.18;;
61471;SDS011;47337;54.068;12.114;2022-08-01T02:27:03;15.82;;;11.45;;
61471;SDS011;47337;54.068;12.114;2022-08-01T02:29:35;16.75;;;11.55;;
61471;SDS011;47337;54.068;12.114;2022-08-01T02:32:04;13.40;;;11.95;;
61471;SDS011;47337;54.068;12.114;2022-08-01T02:34:35;15.38;;;11.40;;
61471;SDS011;47337;54.068;12.114;2022-08-01T02:37:00;13.98;;;11.55;;
61471;SDS011;47337;54.068;12.114;2022-08-01T02:39:28;16.58;;;12.30;;
61471;SDS011;47337;54.068;12.114;2022-08-01T02:41:56;15.75;;;13.98;;
61471;SDS011;47337;54.068;12.114;2022-08-01T02:44:24;21.27;;;14.13;;
61471;SDS011;47337;54.068;12.114;2022-08-01T02:47:00;18.52;;;14.80;;
61471;SDS011;47337;54.068;12.114;2022-08-01T02:49:37;16.83;;;14.00;;
61471;SDS011;47337;54.068;12.114;2022-08-01T02:52:07;17.88;;;14.55;;
61471;SDS011;47337;54.068;12.114;2022-08-01T02:54:34;16.90;;;14.20;;
61471;SDS011;47337;54.068;12.114;2022-08-01T02:57:02;14.88;;;12.85;;
61471;SDS011;47337;54.068;12.114;2022-08-01T02:59:31;17.70;;;13.85;;
61471;SDS011;47337;54.068;12.114;2022-08-01T03:01:58;18.10;;;13.07;;
61471;SDS011;47337;54.068;12.114;2022-08-01T03:04:29;17.63;;;14.13;;
61471;SDS011;47337;54.068;12.114;2022-08-01T03:07:00;15.50;;;13.55;;
61471;SDS011;47337;54.068;12.114;2022-08-01T03:09:28;15.90;;;13.25;;
61471;SDS011;47337;54.068;12.114;2022-08-01T03:11:56;21.02;;;14.48;;
61471;SDS011;47337;54.068;12.114;2022-08-01T03:14:25;19.77;;;14.65;;
61471;SDS011;47337;54.068;12.114;2022-08-01T03:16:52;19.40;;;15.85;;
61471;SDS011;47337;54.068;12.114;2022-08-01T03:19:20;19.85;;;14.73;;
61471;SDS011;47337;54.068;12.114;2022-08-01T03:21:49;20.40;;;16.58;;
61471;SDS011;47337;54.068;12.114;2022-08-01T03:24:16;22.60;;;17.15;;
61471;SDS011;47337;54.068;12.114;2022-08-01T03:26:43;16.88;;;15.13;;
61471;SDS011;47337;54.068;12.114;2022-08-01T03:29:14;20.67;;;16.88;;
61471;SDS011;47337;54.068;12.114;2022-08-01T03:31:43;22.67;;;17.20;;
61471;SDS011;47337;54.068;12.114;2022-08-01T03:34:13;19.17;;;15.40;;
61471;SDS011;47337;54.068;12.114;2022-08-01T03:36:43;19.48;;;15.60;;
61471;SDS011;47337;54.068;12.114;2022-08-01T03:41:39;20.08;;;15.63;;
61471;SDS011;47337;54.068;12.114;2022-08-01T03:44:10;23.20;;;16.83;;
61471;SDS011;47337;54.068;12.114;2022-08-01T03:46:46;22.88;;;16.25;;
61471;SDS011;47337;54.068;12.114;2022-08-01T03:49:17;22.70;;;15.88;;
61471;SDS011;47337;54.068;12.114;2022-08-01T03:51:47;21.08;;;16.80;;
61471;SDS011;47337;54.068;12.114;2022-08-01T03:54:14;21.02;;;15.70;;
61471;SDS011;47337;54.068;12.114;2022-08-01T03:56:42;21.75;;;15.07;;
61471;SDS011;47337;54.068;12.114;2022-08-01T03:59:09;16.85;;;14.75;;
61471;SDS011;47337;54.068;12.114;2022-08-01T04:01:40;19.40;;;14.57;;
61471;SDS011;47337;54.068;12.114;2022-08-01T04:04:06;19.60;;;15.02;;
61471;SDS011;47337;54.068;12.114;2022-08-01T04:06:31;20.33;;;15.05;;
61471;SDS011;47337;54.068;12.114;2022-08-01T04:08:57;19.35;;;15.90;;
61471;SDS011;47337;54.068;12.114;2022-08-01T04:11:26;20.42;;;15.82;;
61471;SDS011;47337;54.068;12.114;2022-08-01T04:16:23;21.30;;;16.02;;
61471;SDS011;47337;54.068;12.114;2022-08-01T04:18:49;21.00;;;16.20;;
61471;SDS011;47337;54.068;12.114;2022-08-01T04:21:14;20.70;;;16.77;;
61471;SDS011;47337;54.068;12.114;2022-08-01T04:23:43;20.73;;;16.23;;
61471;SDS011;47337;54.068;12.114;2022-08-01T04:26:11;21.48;;;17.30;;
61471;SDS011;47337;54.068;12.114;2022-08-01T04:28:39;22.38;;;17.58;;
61471;SDS011;47337;54.068;12.114;2022-08-01T04:31:07;25.27;;;16.70;;
61471;SDS011;47337;54.068;12.114;2022-08-01T04:33:40;24.67;;;18.23;;
61471;SDS011;47337;54.068;12.114;2022-08-01T04:36:09;20.98;;;17.30;;
61471;SDS011;47337;54.068;12.114;2022-08-01T04:38:38;23.75;;;17.17;;
61471;SDS011;47337;54.068;12.114;2022-08-01T04:41:05;19.98;;;15.90;;
61471;SDS011;47337;54.068;12.114;2022-08-01T04:43:34;22.50;;;17.65;;
61471;SDS011;47337;54.068;12.114;2022-08-01T04:46:03;23.20;;;17.90;;
61471;SDS011;47337;54.068;12.114;2022-08-01T04:48:38;23.45;;;17.55;;
61471;SDS011;47337;54.068;12.114;2022-08-01T04:51:10;24.13;;;17.27;;
61471;SDS011;47337;54.068;12.114;2022-08-01T04:56:03;23.58;;;17.30;;
61471;SDS011;47337;54.068;12.114;2022-08-01T04:58:28;21.48;;;17.90;;
61471;SDS011;47337;54.068;12.114;2022-08-01T05:00:54;25.98;;;19.48;;
61471;SDS011;47337;54.068;12.114;2022-08-01T05:03:19;30.52;;;19.55;;
61471;SDS011;47337;54.068;12.114;2022-08-01T05:05:44;28.63;;;20.40;;
61471;SDS011;47337;54.068;12.114;2022-08-01T05:08:10;30.42;;;20.00;;
61471;SDS011;47337;54.068;12.114;2022-08-01T05:10:35;25.00;;;18.88;;
61471;SDS011;47337;54.068;12.114;2022-08-01T05:13:01;27.60;;;20.45;;
61471;SDS011;47337;54.068;12.114;2022-08-01T05:15:27;30.02;;;21.88;;
61471;SDS011;47337;54.068;12.114;2022-08-01T05:17:55;27.92;;;19.70;;
61471;SDS011;47337;54.068;12.114;2022-08-01T05:20:21;27.00;;;19.13;;
61471;SDS011;47337;54.068;12.114;2022-08-01T05:22:46;23.42;;;18.60;;
61471;SDS011;47337;54.068;12.114;2022-08-01T05:25:12;28.00;;;19.65;;
61471;SDS011;47337;54.068;12.114;2022-08-01T05:27:38;26.75;;;19.08;;
61471;SDS011;47337;54.068;12.114;2022-08-01T05:30:07;28.60;;;19.08;;
61471;SDS011;47337;54.068;12.114;2022-08-01T05:32:33;21.92;;;19.02;;
61471;SDS011;47337;54.068;12.114;2022-08-01T05:34:59;25.63;;;18.15;;
61471;SDS011;47337;54.068;12.114;2022-08-01T05:37:24;24.15;;;18.55;;
61471;SDS011;47337;54.068;12.114;2022-08-01T05:39:50;23.83;;;17.60;;
61471;SDS011;47337;54.068;12.114;2022-08-01T05:42:15;23.58;;;17.60;;
61471;SDS011;47337;54.068;12.114;2022-08-01T05:44:43;21.50;;;16.65;;
61471;SDS011;47337;54.068;12.114;2022-08-01T05:47:09;21.75;;;18.00;;
61471;SDS011;47337;54.068;12.114;2022-08-01T05:49:34;23.33;;;16.58;;
61471;SDS011;47337;54.068;12.114;2022-08-01T05:51:59;19.95;;;15.98;;
61471;SDS011;47337;54.068;12.114;2022-08-01T05:54:26;20.40;;;15.27;;
61471;SDS011;47337;54.068;12.114;2022-08-01T05:56:52;21.55;;;14.75;;
61471;SDS011;47337;54.068;12.114;2022-08-01T05:59:25;21.08;;;13.75;;
61471;SDS011;47337;54.068;12.114;2022-08-01T06:01:50;17.55;;;14.18;;
61471;SDS011;47337;54.068;12.114;2022-08-01T06:04:16;16.65;;;13.80;;
61471;SDS011;47337;54.068;12.114;2022-08-01T06:06:41;14.65;;;12.95;;
61471;SDS011;47337;54.068;12.114;2022-08-01T06:09:09;14.98;;;12.45;;
61471;SDS011;47337;54.068;12.114;2022-08-01T06:11:34;14.30;;;12.43;;
61471;SDS011;47337;54.068;12.114;2022-08-01T06:14:02;16.50;;;12.70;;
61471;SDS011;47337;54.068;12.114;2022-08-01T06:16:28;12.38;;;10.90;;
61471;SDS011;47337;54.068;12.114;2022-08-01T06:18:53;13.80;;;10.10;;
61471;SDS011;47337;54.068;12.114;2022-08-01T06:21:18;11.35;;;9.23;;
61471;SDS011;47337;54.068;12.114;2022-08-01T06:23:44;11.00;;;9.57;;
61471;SDS011;47337;54.068;12.114;2022-08-01T06:26:09;10.25;;;8.93;;
61471;SDS011;47337;54.068;12.114;2022-08-01T06:28:35;9.27;;;8.30;;
61471;SDS011;47337;54.068;12.114;2022-08-01T06:31:03;10.13;;;7.65;;
61471;SDS011;47337;54.068;12.114;2022-08-01T06:33:28;8.07;;;7.25;;
61471;SDS011;47337;54.068;12.114;2022-08-01T06:35:56;7.35;;;6.65;;
61471;SDS011;47337;54.068;12.114;2022-08-01T06:38:21;8.30;;;5.65;;
61471;SDS011;47337;54.068;12.114;2022-08-01T06:40:47;4.75;;;4.32;;
61471;SDS011;47337;54.068;12.114;2022-08-01T06:43:13;4.65;;;4.25;;
61471;SDS011;47337;54.068;12.114;2022-08-01T06:45:39;5.22;;;4.72;;
61471;SDS011;47337;54.068;12.114;2022-08-01T06:48:05;5.35;;;4.85;;
61471;SDS011;47337;54.068;12.114;2022-08-01T06:50:30;6.18;;;5.28;;
61471;SDS011;47337;54.068;12.114;2022-08-01T06:52:56;4.95;;;4.45;;
61471;SDS011;47337;54.068;12.114;2022-08-01T06:55:22;4.57;;;4.18;;
61471;SDS011;47337;54.068;12.114;2022-08-01T06:57:51;4.05;;;3.75;;
61471;SDS011;47337;54.068;12.114;2022-08-01T07:00:18;5.22;;;4.50;;
61471;SDS011;47337;54.068;12.114;2022-08-01T07:02:47;7.25;;;5.50;;
61471;SDS011;47337;54.068;12.114;2022-08-01T07:05:14;6.68;;;6.07;;
61471;SDS011;47337;54.068;12.114;2022-08-01T07:07:39;8.00;;;6.63;;
61471;SDS011;47337;54.068;12.114;2022-08-01T07:10:04;7.72;;;6.95;;
61471;SDS011;47337;54.068;12.114;2022-08-01T07:12:33;7.85;;;7.07;;
61471;SDS011;47337;54.068;12.114;2022-08-01T07:15:01;8.55;;;6.55;;
61471;SDS011;47337;54.068;12.114;2022-08-01T07:17:28;7.93;;;6.80;;
61471;SDS011;47337;54.068;12.114;2022-08-01T07:19:53;6.57;;;5.82;;
61471;SDS011;47337;54.068;12.114;2022-08-01T07:22:19;7.03;;;6.40;;
61471;SDS011;47337;54.068;12.114;2022-08-01T07:24:45;7.57;;;5.80;;
61471;SDS011;47337;54.068;12.114;2022-08-01T07:27:11;7.38;;;5.88;;
61471;SDS011;47337;54.068;12.114;2022-08-01T07:29:36;7.32;;;5.30;;
61471;SDS011;47337;54.068;12.114;2022-08-01T07:32:01;6.03;;;5.53;;
61471;SDS011;47337;54.068;12.114;2022-08-01T07:34:27;6.30;;;5.40;;
61471;SDS011;47337;54.068;12.114;2022-08-01T07:36:52;6.30;;;4.82;;
61471;SDS011;47337;54.068;12.114;2022-08-01T07:39:18;4.90;;;4.38;;
61471;SDS011;47337;54.068;12.114;2022-08-01T07:41:44;5.32;;;4.82;;
61471;SDS011;47337;54.068;12.114;2022-08-01T07:44:09;5.80;;;4.53;;
61471;SDS011;47337;54.068;12.114;2022-08-01T07:46:35;4.15;;;3.53;;
61471;SDS011;47337;54.068;12.114;2022-08-01T07:49:00;3.25;;;2.95;;
61471;SDS011;47337;54.068;12.114;2022-08-01T07:51:26;3.58;;;2.50;;
61471;SDS011;47337;54.068;12.114;2022-08-01T07:53:51;5.30;;;2.38;;
61471;SDS011;47337;54.068;12.114;2022-08-01T07:56:19;2.75;;;2.03;;
61471;SDS011;47337;54.068;12.114;2022-08-01T07:58:44;3.20;;;1.95;;
61471;SDS011;47337;54.068;12.114;2022-08-01T08:01:11;4.10;;;2.38;;
61471;SDS011;47337;54.068;12.114;2022-08-01T08:03:37;3.50;;;2.25;;
61471;SDS011;47337;54.068;12.114;2022-08-01T08:06:02;3.38;;;2.03;;
61471;SDS011;47337;54.068;12.114;2022-08-01T08:08:27;2.55;;;2.35;;
61471;SDS011;47337;54.068;12.114;2022-08-01T08:10:53;3.63;;;2.03;;
61471;SDS011;47337;54.068;12.114;2022-08-01T08:13:18;2.97;;;1.80;;
61471;SDS011;47337;54.068;12.114;2022-08-01T08:15:44;2.30;;;2.10;;
61471;SDS011;47337;54.068;12.114;2022-08-01T08:18:09;2.85;;;1.80;;
61471;SDS011;47337;54.068;12.114;2022-08-01T08:20:35;1.80;;;1.67;;
61471;SDS011;47337;54.068;12.114;2022-08-01T08:23:00;2.75;;;2.00;;
61471;SDS011;47337;54.068;12.114;2022-08-01T08:25:26;4.50;;;2.63;;
61471;SDS011;47337;54.068;12.114;2022-08-01T08:27:52;3.72;;;2.17;;
61471;SDS011;47337;54.068;12.114;2022-08-01T08:30:18;3.35;;;2.33;;
61471;SDS011;47337;54.068;12.114;2022-08-01T08:32:43;4.35;;;2.10;;
61471;SDS011;47337;54.068;12.114;2022-08-01T08:35:09;3.55;;;1.95;;
61471;SDS011;47337;54.068;12.114;2022-08-01T08:37:35;4.60;;;2.08;;
61471;SDS011;47337;54.068;12.114;2022-08-01T08:40:02;3.55;;;2.17;;
61471;SDS011;47337;54.068;12.114;2022-08-01T08:42:29;2.53;;;1.90;;
61471;SDS011;47337;54.068;12.114;2022-08-01T08:44:57;2.38;;;1.67;;
61471;SDS011;47337;54.068;12.114;2022-08-01T08:47:22;3.53;;;2.05;;
61471;SDS011;47337;54.068;12.114;2022-08-01T08:49:50;5.63;;;2.00;;
61471;SDS011;47337;54.068;12.114;2022-08-01T08:52:19;2.33;;;1.75;;
61471;SDS011;47337;54.068;12.114;2022-08-01T08:54:45;3.33;;;2.00;;
61471;SDS011;47337;54.068;12.114;2022-08-01T08:57:13;3.55;;;2.10;;
61471;SDS011;47337;54.068;12.114;2022-08-01T08:59:43;2.45;;;1.90;;
61471;SDS011;47337;54.068;12.114;2022-08-01T09:02:10;2.15;;;1.88;;
61471;SDS011;47337;54.068;12.114;2022-08-01T09:04:36;1.95;;;1.55;;
61471;SDS011;47337;54.068;12.114;2022-08-01T09:07:03;2.83;;;2.15;;
61471;SDS011;47337;54.068;12.114;2022-08-01T09:09:30;2.55;;;2.00;;
61471;SDS011;47337;54.068;12.114;2022-08-01T09:11:55;2.75;;;1.83;;
61471;SDS011;47337;54.068;12.114;2022-08-01T09:14:21;3.20;;;2.42;;
61471;SDS011;47337;54.068;12.114;2022-08-01T09:19:35;3.25;;;2.15;;
61471;SDS011;47337;54.068;12.114;2022-08-01T09:22:03;2.30;;;1.63;;
61471;SDS011;47337;54.068;12.114;2022-08-01T09:24:31;2.25;;;1.60;;
61471;SDS011;47337;54.068;12.114;2022-08-01T09:27:00;2.30;;;1.95;;
61471;SDS011;47337;54.068;12.114;2022-08-01T09:29:28;4.13;;;1.80;;
61471;SDS011;47337;54.068;12.114;2022-08-01T09:31:56;4.20;;;2.08;;
61471;SDS011;47337;54.068;12.114;2022-08-01T09:34:28;2.33;;;2.08;;
61471;SDS011;47337;54.068;12.114;2022-08-01T09:36:58;2.72;;;2.35;;
61471;SDS011;47337;54.068;12.114;2022-08-01T09:39:29;2.70;;;2.50;;
61471;SDS011;47337;54.068;12.114;2022-08-01T09:41:57;2.95;;;2.42;;
61471;SDS011;47337;54.068;12.114;2022-08-01T09:44:37;5.55;;;2.97;;
61471;SDS011;47337;54.068;12.114;2022-08-01T09:47:04;3.20;;;2.50;;
61471;SDS011;47337;54.068;12.114;2022-08-01T09:49:31;3.63;;;2.80;;
61471;SDS011;47337;54.068;12.114;2022-08-01T09:51:59;4.53;;;2.97;;
61471;SDS011;47337;54.068;12.114;2022-08-01T09:54:36;4.80;;;2.50;;
61471;SDS011;47337;54.068;12.114;2022-08-01T09:57:34;3.38;;;2.55;;
61471;SDS011;47337;54.068;12.114;2022-08-01T09:59:54;4.75;;;2.78;;
61471;SDS011;47337;54.068;12.114;2022-08-01T10:02:30;2.83;;;2.22;;
61471;SDS011;47337;54.068;12.114;2022-08-01T10:04:55;3.10;;;2.85;;
61471;SDS011;47337;54.068;12.114;2022-08-01T10:07:21;4.32;;;2.20;;
61471;SDS011;47337;54.068;12.114;2022-08-01T10:09:47;4.93;;;2.92;;
61471;SDS011;47337;54.068;12.114;2022-08-01T10:12:16;3.20;;;2.00;;
61471;SDS011;47337;54.068;12.114;2022-08-01T10:14:47;2.90;;;2.60;;
61471;SDS011;47337;54.068;12.114;2022-08-01T10:17:15;5.57;;;2.95;;
61471;SDS011;47337;54.068;12.114;2022-08-01T10:19:42;3.88;;;2.63;;
61471;SDS011;47337;54.068;12.114;2022-08-01T10:22:10;4.15;;;2.85;;
61471;SDS011;47337;54.068;12.114;2022-08-01T10:24:41;5.00;;;3.10;;
61471;SDS011;47337;54.068;12.114;2022-08-01T10:27:08;4.45;;;2.55;;
61471;SDS011;47337;54.068;12.114;2022-08-01T10:32:16;6.75;;;3.20;;
61471;SDS011;47337;54.068;12.114;2022-08-01T10:34:45;4.95;;;3.50;;
61471;SDS011;47337;54.068;12.114;2022-08-01T10:37:10;6.72;;;3.55;;
61471;SDS011;47337;54.068;12.114;2022-08-01T10:39:38;4.05;;;2.67;;
61471;SDS011;47337;54.068;12.114;2022-08-01T10:42:04;4.60;;;2.42;;
61471;SDS011;47337;54.068;12.114;2022-08-01T10:44:31;2.15;;;1.80;;
61471;SDS011;47337;54.068;12.114;2022-08-01T10:47:09;3.95;;;1.60;;
61471;SDS011;47337;54.068;12.114;2022-08-01T10:49:49;3.20;;;1.75;;
61471;SDS011;47337;54.068;12.114;2022-08-01T10:52:19;2.03;;;1.50;;
61471;SDS011;47337;54.068;12.114;2022-08-01T10:54:45;2.33;;;1.70;;
61471;SDS011;47337;54.068;12.114;2022-08-01T10:57:16;5.43;;;2.38;;
61471;SDS011;47337;54.068;12.114;2022-08-01T10:59:49;6.10;;;2.90;;
61471;SDS011;47337;54.068;12.114;2022-08-01T11:02:25;4.90;;;3.30;;
61471;SDS011;47337;54.068;12.114;2022-08-01T11:04:55;9.10;;;3.63;;
61471;SDS011;47337;54.068;12.114;2022-08-01T11:07:35;7.45;;;3.70;;
61471;SDS011;47337;54.068;12.114;2022-08-01T11:13:03;7.38;;;4.13;;
61471;SDS011;47337;54.068;12.114;2022-08-01T11:15:32;8.18;;;4.63;;
61471;SDS011;47337;54.068;12.114;2022-08-01T11:17:59;8.20;;;4.55;;
61471;SDS011;47337;54.068;12.114;2022-08-01T11:20:27;12.02;;;4.03;;
61471;SDS011;47337;54.068;12.114;2022-08-01T11:25:23;8.50;;;3.55;;
61471;SDS011;47337;54.068;12.114;2022-08-01T11:27:49;10.20;;;3.47;;
61471;SDS011;47337;54.068;12.114;2022-08-01T11:30:47;11.95;;;3.30;;
61471;SDS011;47337;54.068;12.114;2022-08-01T11:33:14;11.85;;;3.40;;
61471;SDS011;47337;54.068;12.114;2022-08-01T11:38:40;10.00;;;3.47;;
61471;SDS011;47337;54.068;12.114;2022-08-01T11:49:29;7.85;;;3.13;;
61471;SDS011;47337;54.068;12.114;2022-08-01T11:54:51;15.80;;;3.80;;
61471;SDS011;47337;54.068;12.114;2022-08-01T11:57:22;7.53;;;2.75;;
61471;SDS011;47337;54.068;12.114;2022-08-01T11:59:57;6.93;;;2.50;;
61471;SDS011;47337;54.068;12.114;2022-08-01T12:02:32;10.73;;;3.78;;
61471;SDS011;47337;54.068;12.114;2022-08-01T12:07:35;8.18;;;3.22;;
61471;SDS011;47337;54.068;12.114;2022-08-01T12:12:40;11.82;;;2.70;;
61471;SDS011;47337;54.068;12.114;2022-08-01T12:15:11;12.65;;;2.47;;
61471;SDS011;47337;54.068;12.114;2022-08-01T12:20:05;10.57;;;2.90;;
61471;SDS011;47337;54.068;12.114;2022-08-01T12:22:33;6.63;;;2.78;;
61471;SDS011;47337;54.068;12.114;2022-08-01T12:25:08;9.43;;;2.50;;
61471;SDS011;47337;54.068;12.114;2022-08-01T12:27:36;9.02;;;2.45;;
61471;SDS011;47337;54.068;12.114;2022-08-01T12:30:07;9.02;;;2.60;;
61471;SDS011;47337;54.068;12.114;2022-08-01T12:32:35;10.60;;;2.08;;
61471;SDS011;47337;54.068;12.114;2022-08-01T12:37:48;9.80;;;2.67;;
61471;SDS011;47337;54.068;12.114;2022-08-01T12:40:16;8.48;;;2.00;;
61471;SDS011;47337;54.068;12.114;2022-08-01T12:42:47;7.75;;;1.70;;
61471;SDS011;47337;54.068;12.114;2022-08-01T12:45:15;6.45;;;1.90;;
61471;SDS011;47337;54.068;12.114;2022-08-01T12:47:43;7.10;;;1.83;;
61471;SDS011;47337;54.068;12.114;2022-08-01T12:50:14;7.25;;;2.40;;
61471;SDS011;47337;54.068;12.114;2022-08-01T12:52:42;9.33;;;2.00;;
61471;SDS011;47337;54.068;12.114;2022-08-01T12:55:15;6.45;;;1.90;;
61471;SDS011;47337;54.068;12.114;2022-08-01T12:57:46;9.30;;;2.15;;
61471;SDS011;47337;54.068;12.114;2022-08-01T13:02:46;5.30;;;2.10;;
61471;SDS011;47337;54.068;12.114;2022-08-01T13:05:15;8.85;;;2.53;;
61471;SDS011;47337;54.068;12.114;2022-08-01T13:10:07;4.78;;;1.60;;
61471;SDS011;47337;54.068;12.114;2022-08-01T13:12:36;5.78;;;1.73;;
61471;SDS011;47337;54.068;12.114;2022-08-01T13:17:49;4.28;;;1.80;;
61471;SDS011;47337;54.068;12.114;2022-08-01T13:20:23;8.23;;;1.85;;
61471;SDS011;47337;54.068;12.114;2022-08-01T13:22:53;6.97;;;1.60;;
61471;SDS011;47337;54.068;12.114;2022-08-01T13:25:19;7.40;;;2.03;;
61471;SDS011;47337;54.068;12.114;2022-08-01T13:27:44;5.55;;;1.27;;
61471;SDS011;47337;54.068;12.114;2022-08-01T13:30:17;5.68;;;1.60;;
61471;SDS011;47337;54.068;12.114;2022-08-01T13:32:44;4.30;;;1.40;;
61471;SDS011;47337;54.068;12.114;2022-08-01T13:35:25;2.88;;;1.40;;
61471;SDS011;47337;54.068;12.114;2022-08-01T13:37:53;4.25;;;1.20;;
61471;SDS011;47337;54.068;12.114;2022-08-01T13:40:26;6.28;;;1.88;;
61471;SDS011;47337;54.068;12.114;2022-08-01T13:42:54;6.65;;;2.17;;
61471;SDS011;47337;54.068;12.114;2022-08-01T13:45:21;10.55;;;2.22;;
61471;SDS011;47337;54.068;12.114;2022-08-01T13:47:47;7.30;;;1.80;;
61471;SDS011;47337;54.068;12.114;2022-08-01T13:50:12;4.03;;;1.63;;
61471;SDS011;47337;54.068;12.114;2022-08-01T13:52:37;7.35;;;1.95;;
61471;SDS011;47337;54.068;12.114;2022-08-01T13:55:03;7.45;;;1.73;;
61471;SDS011;47337;54.068;12.114;2022-08-01T13:57:28;4.28;;;1.75;;
61471;SDS011;47337;54.068;12.114;2022-08-01T13:59:54;6.63;;;1.90;;
61471;SDS011;47337;54.068;12.114;2022-08-01T14:02:22;4.93;;;1.75;;
61471;SDS011;47337;54.068;12.114;2022-08-01T14:04:47;5.88;;;1.33;;
61471;SDS011;47337;54.068;12.114;2022-08-01T14:07:13;7.97;;;1.80;;
61471;SDS011;47337;54.068;12.114;2022-08-01T14:09:38;6.00;;;2.10;;
61471;SDS011;47337;54.068;12.114;2022-08-01T14:12:04;6.72;;;2.53;;
61471;SDS011;47337;54.068;12.114;2022-08-01T14:14:29;6.97;;;1.75;;
61471;SDS011;47337;54.068;12.114;2022-08-01T14:16:55;7.38;;;1.65;;
61471;SDS011;47337;54.068;12.114;2022-08-01T14:19:21;6.03;;;2.10;;
61471;SDS011;47337;54.068;12.114;2022-08-01T14:21:49;4.95;;;1.77;;
61471;SDS011;47337;54.068;12.114;2022-08-01T14:24:14;5.63;;;1.70;;
61471;SDS011;47337;54.068;12.114;2022-08-01T14:26:39;4.68;;;1.63;;
61471;SDS011;47337;54.068;12.114;2022-08-01T14:29:05;6.32;;;1.50;;
61471;SDS011;47337;54.068;12.114;2022-08-01T14:31:30;6.75;;;1.73;;
61471;SDS011;47337;54.068;12.114;2022-08-01T14:33:56;7.45;;;1.75;;
61471;SDS011;47337;54.068;12.114;2022-08-01T14:36:26;5.95;;;1.65;;
61471;SDS011;47337;54.068;12.114;2022-08-01T14:38:51;4.93;;;1.50;;
61471;SDS011;47337;54.068;12.114;2022-08-01T14:41:19;7.15;;;1.90;;
61471;SDS011;47337;54.068;12.114;2022-08-01T14:43:46;5.72;;;1.58;;
61471;SDS011;47337;54.068;12.114;2022-08-01T14:46:14;7.15;;;1.98;;
61471;SDS011;47337;54.068;12.114;2022-08-01T14:48:42;5.68;;;1.60;;
61471;SDS011;47337;54.068;12.114;2022-08-01T14:51:07;8.07;;;2.15;;
61471;SDS011;47337;54.068;12.114;2022-08-01T14:53:33;7.32;;;1.65;;
61471;SDS011;47337;54.068;12.114;2022-08-01T14:56:05;6.75;;;1.88;;
61471;SDS011;47337;54.068;12.114;2022-08-01T14:58:31;5.13;;;1.65;;
61471;SDS011;47337;54.068;12.114;2022-08-01T15:00:59;6.53;;;1.70;;
61471;SDS011;47337;54.068;12.114;2022-08-01T15:03:25;9.27;;;2.03;;
61471;SDS011;47337;54.068;12.114;2022-08-01T15:05:50;6.43;;;1.75;;
61471;SDS011;47337;54.068;12.114;2022-08-01T15:08:16;6.47;;;1.98;;
61471;SDS011;47337;54.068;12.114;2022-08-01T15:10:42;4.40;;;1.70;;
61471;SDS011;47337;54.068;12.114;2022-08-01T15:13:09;5.32;;;1.88;;
61471;SDS011;47337;54.068;12.114;2022-08-01T15:15:34;6.20;;;1.98;;
61471;SDS011;47337;54.068;12.114;2022-08-01T15:18:00;7.88;;;1.80;;
61471;SDS011;47337;54.068;12.114;2022-08-01T15:20:28;5.00;;;1.40;;